Kingsburg, California
Current Conditions -  °F | °C
As of 10:53 AM on Friday 24 Oct 2014 (Local Time) from KHJO Reporting Station
Clear Clear  
Wind Chill: 67°   Ceiling: Unl
Heat Index: 67°   Visibility: 7mi
Dew Point: 48°   Wind: 0mph
Humidity: 51%   Direction: NA
Pressure: 30"   Gusts: NA
Location:  36.51°N, 119.55°W
Report Text: KHJO 241753Z AUTO 00000KT 7SM CLR 19/09 A3000 RMK AO2 SLP160 T01940089 10194 20083 58002
Loading
Personal Weather Stations






























Interactive Weather Map
Tropical Storm Tracking
New forecast layout! Learn more

10-Day Weather Forecast

Advertisements
Track Severe Weather on mobile